Time;durP1;ratioP1;P1;durP2;ratioP2;P2;SDS_P1;SDS_P2;PMS_P1;PMS_P2;Temp;Humidity;BMP_temperature;BMP_pressure;BME280_temperature;BME280_humidity;BME280_pressure;Samples;Min_cycle;Max_cycle;Signal;HPM_P1;HPM_P2
2021/09/13 00:00:51;;;;;;;14.10;6.80;;;;;;;;;;5031472;28;20268;-65
2021/09/13 00:03:16;;;;;;;11.85;7.78;;;;;;;;;;5031304;28;20359;-66
2021/09/13 00:05:41;;;;;;;11.82;6.82;;;;;;;;;;5031182;28;20493;-65
2021/09/13 00:08:06;;;;;;;15.40;7.25;;;;;;;;;;5031598;28;20390;-66
2021/09/13 00:10:31;;;;;;;13.38;7.82;;;;;;;;;;5030878;28;20021;-65
2021/09/13 00:12:57;;;;;;;13.43;7.10;;;;;;;;;;5031034;28;20402;-65
2021/09/13 00:15:22;;;;;;;13.70;7.77;;;;;;;;;;5030008;28;20025;-66
2021/09/13 00:17:47;;;;;;;16.50;8.13;;;;;;;;;;5030045;28;20260;-66
2021/09/13 00:20:12;;;;;;;11.33;7.47;;;;;;;;;;5031795;28;20478;-65
2021/09/13 00:22:38;;;;;;;15.55;8.13;;;;;;;;;;5031100;28;20272;-65
2021/09/13 00:25:03;;;;;;;15.02;7.00;;;;;;;;;;5030908;28;20025;-65
2021/09/13 00:27:28;;;;;;;18.75;8.45;;;;;;;;;;5030397;28;20025;-66
2021/09/13 00:29:54;;;;;;;16.27;7.80;;;;;;;;;;5031170;28;20437;-65
2021/09/13 00:32:19;;;;;;;12.77;7.77;;;;;;;;;;5030599;28;20363;-66
2021/09/13 00:34:44;;;;;;;14.25;7.72;;;;;;;;;;5030636;28;20288;-65
2021/09/13 00:37:09;;;;;;;18.45;6.82;;;;;;;;;;5030968;28;20049;-65
2021/09/13 00:39:34;;;;;;;14.07;6.95;;;;;;;;;;5029528;28;20061;-66
2021/09/13 00:42:00;;;;;;;13.00;7.38;;;;;;;;;;5031199;28;20386;-66
2021/09/13 00:44:25;;;;;;;17.17;7.90;;;;;;;;;;5029554;28;20059;-67
2021/09/13 00:46:50;;;;;;;15.20;8.02;;;;;;;;;;5029682;28;20029;-65
2021/09/13 00:49:16;;;;;;;12.57;7.82;;;;;;;;;;5030739;28;20029;-65
2021/09/13 00:51:41;;;;;;;18.15;9.40;;;;;;;;;;5026764;28;20477;-65
2021/09/13 00:54:07;;;;;;;13.55;7.00;;;;;;;;;;5030711;28;20021;-65
2021/09/13 00:56:32;;;;;;;13.38;8.00;;;;;;;;;;5029418;28;20026;-66
2021/09/13 00:58:57;;;;;;;11.38;7.80;;;;;;;;;;5029977;28;20029;-65
2021/09/13 01:01:23;;;;;;;19.83;7.22;;;;;;;;;;5030420;28;20049;-65
2021/09/13 01:03:48;;;;;;;14.70;7.45;;;;;;;;;;5030031;28;20060;-65
2021/09/13 01:06:14;;;;;;;16.95;7.95;;;;;;;;;;5030460;28;20151;-65
2021/09/13 01:08:39;;;;;;;11.30;7.68;;;;;;;;;;5030719;28;20466;-66
2021/09/13 01:11:04;;;;;;;19.23;8.30;;;;;;;;;;5030079;28;20030;-65
2021/09/13 01:13:30;;;;;;;14.18;8.27;;;;;;;;;;5029394;28;20030;-65
2021/09/13 01:15:55;;;;;;;13.32;7.63;;;;;;;;;;5029201;28;20065;-65
2021/09/13 01:18:20;;;;;;;15.88;7.45;;;;;;;;;;5030539;28;20363;-66
2021/09/13 01:20:46;;;;;;;17.85;8.77;;;;;;;;;;5029792;28;20028;-65
2021/09/13 01:23:23;;;;;;;12.35;7.55;;;;;;;;;;5029918;28;20097;-65
2021/09/13 01:25:48;;;;;;;16.77;7.55;;;;;;;;;;5029879;28;20040;-65
2021/09/13 01:28:13;;;;;;;17.60;7.83;;;;;;;;;;5028996;28;20022;-65
2021/09/13 01:30:38;;;;;;;14.27;8.32;;;;;;;;;;5030510;28;20264;-66
2021/09/13 01:33:03;;;;;;;17.27;8.30;;;;;;;;;;5029653;28;20030;-66
2021/09/13 01:35:28;;;;;;;13.30;7.57;;;;;;;;;;5029795;28;20393;-65
2021/09/13 01:37:54;;;;;;;13.53;8.53;;;;;;;;;;5029814;28;20280;-65
2021/09/13 01:40:19;;;;;;;13.77;7.77;;;;;;;;;;5030087;28;20315;-66
2021/09/13 01:42:44;;;;;;;12.77;7.60;;;;;;;;;;5028645;28;20264;-66
2021/09/13 01:45:09;;;;;;;12.35;7.65;;;;;;;;;;5029006;28;20577;-65
2021/09/13 01:47:35;;;;;;;13.70;7.43;;;;;;;;;;5029956;28;20036;-65
2021/09/13 01:50:00;;;;;;;16.27;8.10;;;;;;;;;;5029851;28;20048;-66
2021/09/13 01:52:25;;;;;;;16.43;8.40;;;;;;;;;;5029221;28;20310;-65
2021/09/13 01:54:50;;;;;;;13.40;7.72;;;;;;;;;;5029634;28;20342;-65
2021/09/13 01:57:15;;;;;;;14.60;8.40;;;;;;;;;;5029222;28;20124;-65
2021/09/13 01:59:40;;;;;;;10.10;6.93;;;;;;;;;;5029236;28;20287;-65
2021/09/13 02:02:06;;;;;;;11.57;8.67;;;;;;;;;;5029035;28;20470;-66
2021/09/13 02:04:31;;;;;;;15.73;8.38;;;;;;;;;;5029859;28;20365;-65
2021/09/13 02:06:56;;;;;;;18.42;9.45;;;;;;;;;;5029530;28;20072;-65
2021/09/13 02:09:21;;;;;;;22.05;9.93;;;;;;;;;;5029731;28;20143;-65
2021/09/13 02:11:47;;;;;;;12.48;8.77;;;;;;;;;;5029417;28;20033;-65
2021/09/13 02:14:12;;;;;;;18.25;9.07;;;;;;;;;;5029930;28;20025;-65
2021/09/13 02:16:37;;;;;;;15.47;9.63;;;;;;;;;;5028630;28;20033;-65
2021/09/13 02:19:02;;;;;;;16.67;10.25;;;;;;;;;;5029963;28;20762;-66
2021/09/13 02:21:27;;;;;;;21.97;9.77;;;;;;;;;;5029677;28;20112;-65
2021/09/13 02:23:53;;;;;;;14.80;9.38;;;;;;;;;;5028629;28;20269;-65
2021/09/13 02:26:18;;;;;;;25.60;9.60;;;;;;;;;;5029228;28;20137;-65
2021/09/13 02:28:43;;;;;;;15.73;8.23;;;;;;;;;;5029164;28;20021;-65
2021/09/13 02:31:08;;;;;;;21.63;10.65;;;;;;;;;;5029269;28;20128;-65
2021/09/13 02:33:34;;;;;;;17.65;8.85;;;;;;;;;;5029222;28;20045;-67
2021/09/13 02:35:59;;;;;;;18.55;8.77;;;;;;;;;;5028505;28;20034;-66
2021/09/13 02:38:24;;;;;;;15.97;8.87;;;;;;;;;;5029112;28;20025;-67
2021/09/13 02:40:49;;;;;;;17.38;9.15;;;;;;;;;;5031326;28;20260;-65
2021/09/13 02:43:15;;;;;;;15.85;9.13;;;;;;;;;;5032166;28;20025;-65
2021/09/13 02:45:40;;;;;;;15.18;8.85;;;;;;;;;;5032264;28;20041;-65
2021/09/13 02:48:05;;;;;;;16.80;8.67;;;;;;;;;;5032790;28;20037;-65
2021/09/13 02:50:30;;;;;;;19.08;9.77;;;;;;;;;;5033009;28;20783;-65
2021/09/13 02:52:58;;;;;;;18.75;9.10;;;;;;;;;;5031971;28;20064;-66
2021/09/13 02:55:23;;;;;;;13.40;8.50;;;;;;;;;;5033011;28;20060;-67
2021/09/13 02:57:48;;;;;;;15.07;8.50;;;;;;;;;;5032866;28;20083;-67
2021/09/13 03:00:14;;;;;;;18.70;9.67;;;;;;;;;;5032772;28;20517;-67
2021/09/13 03:02:39;;;;;;;17.58;9.95;;;;;;;;;;5032847;28;20601;-67
2021/09/13 03:05:04;;;;;;;16.63;10.32;;;;;;;;;;5032739;28;20524;-67
2021/09/13 03:07:29;;;;;;;18.20;10.80;;;;;;;;;;5032431;28;20056;-67
2021/09/13 03:09:54;;;;;;;17.52;9.40;;;;;;;;;;5032779;28;20029;-67
2021/09/13 03:12:20;;;;;;;18.80;10.63;;;;;;;;;;5031989;28;20025;-67
2021/09/13 03:14:45;;;;;;;22.13;11.38;;;;;;;;;;5032593;28;20300;-67
2021/09/13 03:17:10;;;;;;;22.93;11.90;;;;;;;;;;5032289;28;20076;-67
2021/09/13 03:19:35;;;;;;;19.60;12.07;;;;;;;;;;5032576;28;20282;-67
2021/09/13 03:22:00;;;;;;;20.03;12.47;;;;;;;;;;5031859;28;20026;-67
2021/09/13 03:24:25;;;;;;;20.65;12.52;;;;;;;;;;5032391;28;20299;-67
2021/09/13 03:26:51;;;;;;;25.60;12.23;;;;;;;;;;5032442;28;20024;-66
2021/09/13 03:29:16;;;;;;;24.97;12.43;;;;;;;;;;5032725;28;20013;-67
2021/09/13 03:31:41;;;;;;;30.55;12.88;;;;;;;;;;5032448;28;20264;-67
2021/09/13 03:34:08;;;;;;;19.17;11.15;;;;;;;;;;5032460;28;20049;-67
2021/09/13 03:36:34;;;;;;;22.33;11.15;;;;;;;;;;5031439;28;20033;-67
2021/09/13 03:38:59;;;;;;;19.05;10.90;;;;;;;;;;5032009;28;20105;-67
2021/09/13 03:41:25;;;;;;;21.13;11.23;;;;;;;;;;5030101;28;20021;-67
2021/09/13 03:43:50;;;;;;;26.17;11.73;;;;;;;;;;5030623;28;20056;-67
2021/09/13 03:46:15;;;;;;;21.20;12.50;;;;;;;;;;5031246;28;20282;-67
2021/09/13 03:48:40;;;;;;;29.45;12.57;;;;;;;;;;5031822;28;20334;-67
2021/09/13 03:51:05;;;;;;;20.60;12.10;;;;;;;;;;5021769;28;20260;-66
2021/09/13 03:53:31;;;;;;;24.25;12.35;;;;;;;;;;5030466;28;20029;-67
2021/09/13 03:55:56;;;;;;;24.88;12.10;;;;;;;;;;5032235;28;20027;-67
2021/09/13 03:58:21;;;;;;;26.00;13.13;;;;;;;;;;5031661;28;20021;-67
2021/09/13 04:00:46;;;;;;;22.73;12.47;;;;;;;;;;5031529;28;20287;-67
2021/09/13 04:03:16;;;;;;;30.00;12.85;;;;;;;;;;5030932;28;20299;-67
2021/09/13 04:05:50;;;;;;;20.77;12.32;;;;;;;;;;5031594;28;20486;-65
2021/09/13 04:08:36;;;;;;;20.80;12.07;;;;;;;;;;5030720;28;20033;-67
2021/09/13 04:11:19;;;;;;;23.55;12.05;;;;;;;;;;5030997;28;20025;-66
2021/09/13 04:13:44;;;;;;;25.92;13.15;;;;;;;;;;5018583;28;20025;-66
2021/09/13 04:16:09;;;;;;;23.65;12.77;;;;;;;;;;5031097;28;20029;-67
2021/09/13 04:18:35;;;;;;;19.87;12.33;;;;;;;;;;5031257;28;20044;-67
2021/09/13 04:21:00;;;;;;;20.30;12.00;;;;;;;;;;5031667;28;20267;-67
2021/09/13 04:23:25;;;;;;;23.50;12.23;;;;;;;;;;5030333;28;20260;-67
2021/09/13 04:25:50;;;;;;;23.90;12.65;;;;;;;;;;5031361;28;20026;-67
2021/09/13 04:28:15;;;;;;;24.07;13.30;;;;;;;;;;5030494;28;20040;-66
2021/09/13 04:30:40;;;;;;;34.53;13.10;;;;;;;;;;5031253;28;20290;-67
2021/09/13 04:33:06;;;;;;;28.63;13.15;;;;;;;;;;5029841;28;20017;-67
2021/09/13 04:35:31;;;;;;;23.40;12.80;;;;;;;;;;5030674;28;20019;-66
2021/09/13 04:37:56;;;;;;;25.00;13.55;;;;;;;;;;5030594;28;20017;-67
2021/09/13 04:40:21;;;;;;;26.60;13.70;;;;;;;;;;5031005;28;20113;-66
2021/09/13 04:42:46;;;;;;;22.13;12.35;;;;;;;;;;5030533;28;20614;-66
2021/09/13 04:45:12;;;;;;;24.50;13.40;;;;;;;;;;5030486;28;20417;-67
2021/09/13 04:47:37;;;;;;;24.43;12.63;;;;;;;;;;5030060;28;20267;-66
2021/09/13 04:50:02;;;;;;;21.67;13.27;;;;;;;;;;5030964;28;20719;-67
2021/09/13 04:52:28;;;;;;;19.60;12.30;;;;;;;;;;5030455;28;20272;-66
2021/09/13 04:54:53;;;;;;;26.10;12.83;;;;;;;;;;5030138;28;20030;-67
2021/09/13 04:57:18;;;;;;;25.15;14.05;;;;;;;;;;5029513;28;20264;-67
2021/09/13 04:59:43;;;;;;;27.17;12.70;;;;;;;;;;5028402;28;20084;-67
2021/09/13 05:02:08;;;;;;;21.30;12.53;;;;;;;;;;5028157;28;20268;-67
2021/09/13 05:04:33;;;;;;;22.38;12.52;;;;;;;;;;5029762;28;20321;-67
2021/09/13 05:06:59;;;;;;;22.73;11.02;;;;;;;;;;5030384;28;20100;-67
2021/09/13 05:09:24;;;;;;;17.58;11.75;;;;;;;;;;5029815;28;20044;-67
2021/09/13 05:11:49;;;;;;;22.30;11.93;;;;;;;;;;5030077;28;20021;-64
2021/09/13 05:14:14;;;;;;;19.55;11.60;;;;;;;;;;5029657;28;20044;-66
2021/09/13 05:16:40;;;;;;;21.95;12.63;;;;;;;;;;5030035;28;20025;-67
2021/09/13 05:19:05;;;;;;;20.75;12.43;;;;;;;;;;5030612;28;20437;-67
2021/09/13 05:21:36;;;;;;;28.40;12.10;;;;;;;;;;5030158;28;20029;-67
2021/09/13 05:24:01;;;;;;;23.98;13.20;;;;;;;;;;5030041;28;20026;-67
2021/09/13 05:26:26;;;;;;;31.43;14.30;;;;;;;;;;5029990;28;20031;-67
2021/09/13 05:28:51;;;;;;;39.73;15.73;;;;;;;;;;5029170;28;20649;-67
2021/09/13 05:31:16;;;;;;;69.27;21.77;;;;;;;;;;5029288;28;20276;-67
2021/09/13 05:33:42;;;;;;;35.93;15.47;;;;;;;;;;5029237;28;20375;-67
2021/09/13 05:36:07;;;;;;;31.33;15.57;;;;;;;;;;5029998;28;20787;-67
2021/09/13 05:38:35;;;;;;;41.60;19.90;;;;;;;;;;5029832;28;20245;-67
2021/09/13 05:41:00;;;;;;;39.67;17.92;;;;;;;;;;5029742;28;20075;-67
2021/09/13 05:43:25;;;;;;;32.55;17.23;;;;;;;;;;5028687;28;20033;-67
2021/09/13 05:45:52;;;;;;;78.33;20.60;;;;;;;;;;5029872;28;20112;-67
2021/09/13 05:48:17;;;;;;;55.95;19.50;;;;;;;;;;5023688;28;20300;-68
2021/09/13 05:50:43;;;;;;;47.60;20.10;;;;;;;;;;5019813;28;20479;-67
2021/09/13 05:53:08;;;;;;;57.40;22.83;;;;;;;;;;5023384;28;20367;-66
2021/09/13 05:55:33;;;;;;;78.87;23.70;;;;;;;;;;5026938;28;20049;-66
2021/09/13 05:57:58;;;;;;;52.13;23.90;;;;;;;;;;5027152;28;20272;-66
2021/09/13 06:00:23;;;;;;;53.77;23.70;;;;;;;;;;5027192;28;20017;-64
2021/09/13 06:02:49;;;;;;;52.85;23.05;;;;;;;;;;5027083;28;20268;-66
2021/09/13 06:05:14;;;;;;;55.53;23.63;;;;;;;;;;5027018;28;20386;-65
2021/09/13 06:07:39;;;;;;;53.67;25.67;;;;;;;;;;5027981;28;20264;-65
2021/09/13 06:10:05;;;;;;;61.42;25.52;;;;;;;;;;5026533;28;20146;-66
2021/09/13 06:12:30;;;;;;;58.08;24.08;;;;;;;;;;5023987;28;20178;-66
2021/09/13 06:14:56;;;;;;;57.15;24.50;;;;;;;;;;5025522;28;20084;-65
2021/09/13 06:17:21;;;;;;;67.35;26.77;;;;;;;;;;5027220;28;20067;-64
2021/09/13 06:19:47;;;;;;;60.80;26.27;;;;;;;;;;5027833;28;20033;-65
2021/09/13 06:22:12;;;;;;;65.03;27.27;;;;;;;;;;5032065;28;20036;-64
2021/09/13 06:24:39;;;;;;;63.70;25.45;;;;;;;;;;5031650;28;20034;-65
2021/09/13 06:27:05;;;;;;;52.92;26.08;;;;;;;;;;5018789;28;20022;-66
2021/09/13 06:29:30;;;;;;;47.97;23.85;;;;;;;;;;5032856;28;20018;-65
2021/09/13 06:31:55;;;;;;;49.58;24.25;;;;;;;;;;5029795;28;20189;-66
2021/09/13 06:34:20;;;;;;;43.27;24.13;;;;;;;;;;5032140;28;20021;-65
2021/09/13 06:36:46;;;;;;;48.70;24.50;;;;;;;;;;5033121;28;20060;-66
2021/09/13 06:39:11;;;;;;;72.70;28.40;;;;;;;;;;5032013;28;20676;-65
2021/09/13 06:41:37;;;;;;;58.60;26.13;;;;;;;;;;5031996;28;20032;-65
2021/09/13 06:44:03;;;;;;;45.28;24.05;;;;;;;;;;5028115;28;20450;-65
2021/09/13 06:49:05;;;;;;;43.80;23.00;;;;;;;;;;5032853;28;20072;-66
2021/09/13 06:51:31;;;;;;;37.92;21.52;;;;;;;;;;5028126;28;20049;-67
2021/09/13 06:53:56;;;;;;;42.10;21.10;;;;;;;;;;5027966;28;20028;-67
2021/09/13 06:56:21;;;;;;;38.80;21.38;;;;;;;;;;5033016;28;20139;-67
2021/09/13 06:58:47;;;;;;;40.22;19.50;;;;;;;;;;5032587;28;20355;-66
2021/09/13 07:01:12;;;;;;;86.38;25.92;;;;;;;;;;5030959;28;20056;-67
2021/09/13 07:03:37;;;;;;;33.27;20.03;;;;;;;;;;5031367;28;20029;-67
2021/09/13 07:06:02;;;;;;;34.42;19.08;;;;;;;;;;5032475;28;20395;-66
2021/09/13 07:08:27;;;;;;;30.67;19.10;;;;;;;;;;5032612;28;20033;-66
2021/09/13 07:10:54;;;;;;;54.50;20.40;;;;;;;;;;5032422;28;20296;-66
2021/09/13 07:13:19;;;;;;;29.25;17.60;;;;;;;;;;5031890;28;20272;-67
2021/09/13 07:15:44;;;;;;;26.88;17.35;;;;;;;;;;5031759;28;20028;-66
2021/09/13 07:18:10;;;;;;;29.38;17.77;;;;;;;;;;5031090;28;20033;-68
2021/09/13 07:20:35;;;;;;;24.67;15.57;;;;;;;;;;5032545;28;20087;-65
2021/09/13 07:23:00;;;;;;;23.70;16.03;;;;;;;;;;5032165;28;20279;-67
2021/09/13 07:25:25;;;;;;;23.88;15.48;;;;;;;;;;5031496;28;20756;-67
2021/09/13 07:27:51;;;;;;;20.40;14.48;;;;;;;;;;5031125;28;20029;-68
2021/09/13 07:30:16;;;;;;;27.27;14.73;;;;;;;;;;5031250;28;20071;-68
2021/09/13 07:32:41;;;;;;;21.15;13.40;;;;;;;;;;5031873;28;20386;-68
2021/09/13 07:35:07;;;;;;;21.40;14.75;;;;;;;;;;5032097;28;20088;-68
2021/09/13 07:37:36;;;;;;;25.55;14.07;;;;;;;;;;5031273;28;20021;-67
2021/09/13 07:40:01;;;;;;;19.45;14.88;;;;;;;;;;5030827;28;20113;-68
2021/09/13 07:42:27;;;;;;;22.83;13.95;;;;;;;;;;5030650;28;20437;-68
2021/09/13 07:44:52;;;;;;;26.00;13.50;;;;;;;;;;5031212;28;20398;-67
2021/09/13 07:47:19;;;;;;;39.53;15.30;;;;;;;;;;5031702;28;20029;-67
2021/09/13 07:49:44;;;;;;;24.17;13.50;;;;;;;;;;5032108;28;20021;-68
2021/09/13 07:52:09;;;;;;;22.80;13.73;;;;;;;;;;5031556;28;20029;-68
2021/09/13 07:54:34;;;;;;;18.97;13.60;;;;;;;;;;5031400;28;20033;-68
2021/09/13 07:57:00;;;;;;;23.87;12.77;;;;;;;;;;5031516;28;20276;-68
2021/09/13 07:59:25;;;;;;;23.53;13.50;;;;;;;;;;5031538;28;20493;-68
2021/09/13 08:01:50;;;;;;;26.73;11.87;;;;;;;;;;5031305;28;20260;-67
2021/09/13 08:04:15;;;;;;;21.17;11.20;;;;;;;;;;5031676;28;20024;-68
2021/09/13 08:06:40;;;;;;;20.10;11.43;;;;;;;;;;5031734;28;20628;-68
2021/09/13 08:09:07;;;;;;;19.25;12.20;;;;;;;;;;5031146;28;20941;-68
2021/09/13 08:11:32;;;;;;;23.65;13.27;;;;;;;;;;5029305;28;20021;-68
2021/09/13 08:13:58;;;;;;;15.30;10.35;;;;;;;;;;5023780;28;20025;-68
2021/09/13 08:16:23;;;;;;;20.57;11.03;;;;;;;;;;5030583;28;20118;-66
2021/09/13 08:18:50;;;;;;;20.55;10.75;;;;;;;;;;5031546;28;20025;-68
2021/09/13 08:21:17;;;;;;;17.52;10.70;;;;;;;;;;5031574;28;20014;-68
2021/09/13 08:23:43;;;;;;;19.48;12.23;;;;;;;;;;5031337;28;20032;-68
2021/09/13 08:26:08;;;;;;;21.05;10.85;;;;;;;;;;5030757;28;20026;-68
2021/09/13 08:28:34;;;;;;;24.00;11.15;;;;;;;;;;5031110;28;20033;-68
2021/09/13 08:30:59;;;;;;;21.05;11.93;;;;;;;;;;5030644;28;20100;-68
2021/09/13 08:33:24;;;;;;;18.98;11.75;;;;;;;;;;5031167;28;20030;-68
2021/09/13 08:35:50;;;;;;;55.15;15.13;;;;;;;;;;5030478;28;20079;-67
2021/09/13 08:38:15;;;;;;;21.52;10.50;;;;;;;;;;5029930;28;20037;-66
2021/09/13 08:40:40;;;;;;;23.40;12.30;;;;;;;;;;5030962;28;20569;-65
2021/09/13 08:43:06;;;;;;;26.23;11.80;;;;;;;;;;5030507;28;20033;-65
2021/09/13 08:53:01;;;;;;;22.38;12.68;;;;;;;;;;5030012;28;20032;-67
2021/09/13 08:55:26;;;;;;;15.98;10.60;;;;;;;;;;5028245;28;20040;-66
2021/09/13 08:57:52;;;;;;;22.27;11.70;;;;;;;;;;5021090;28;20021;-66
2021/09/13 09:00:17;;;;;;;26.60;14.13;;;;;;;;;;5029013;28;20260;-66
2021/09/13 09:02:43;;;;;;;19.90;12.43;;;;;;;;;;5025964;28;20026;-68
2021/09/13 09:05:08;;;;;;;46.55;15.52;;;;;;;;;;5027292;28;20494;-65
2021/09/13 09:07:48;;;;;;;26.60;12.25;;;;;;;;;;5030509;28;20057;-65
2021/09/13 09:10:17;;;;;;;22.90;11.52;;;;;;;;;;5029376;28;20486;-69
2021/09/13 09:13:01;;;;;;;21.73;13.95;;;;;;;;;;5029789;28;20179;-67
2021/09/13 09:15:27;;;;;;;27.15;12.20;;;;;;;;;;5022576;28;20026;-65
2021/09/13 09:17:56;;;;;;;21.08;12.70;;;;;;;;;;5023533;28;20025;-65
2021/09/13 09:20:21;;;;;;;21.02;13.02;;;;;;;;;;5021199;28;20783;-65
2021/09/13 09:22:47;;;;;;;25.50;14.80;;;;;;;;;;5028586;28;20100;-66
2021/09/13 09:25:25;;;;;;;27.43;17.03;;;;;;;;;;5030012;28;20029;-68
2021/09/13 09:27:52;;;;;;;23.73;14.65;;;;;;;;;;5022836;28;20276;-66
2021/09/13 09:30:18;;;;;;;22.58;14.73;;;;;;;;;;5029946;28;20032;-66
2021/09/13 09:32:59;;;;;;;23.63;14.45;;;;;;;;;;5024139;28;20017;-65
2021/09/13 09:35:24;;;;;;;32.75;14.85;;;;;;;;;;5029491;28;20033;-65
2021/09/13 09:37:49;;;;;;;23.30;15.00;;;;;;;;;;5029091;28;20032;-67
2021/09/13 09:40:26;;;;;;;30.30;14.57;;;;;;;;;;5029175;28;20275;-65
2021/09/13 09:42:53;;;;;;;21.00;13.93;;;;;;;;;;5028730;28;20021;-67
2021/09/13 09:45:18;;;;;;;22.02;15.00;;;;;;;;;;5019834;28;20518;-66
2021/09/13 09:47:44;;;;;;;25.27;15.60;;;;;;;;;;5014827;28;20071;-67
2021/09/13 09:50:09;;;;;;;27.38;15.00;;;;;;;;;;5025823;28;20101;-66
2021/09/13 09:52:41;;;;;;;25.77;15.88;;;;;;;;;;5021175;28;20044;-69
2021/09/13 09:55:19;;;;;;;28.27;16.23;;;;;;;;;;5029291;28;20037;-65
2021/09/13 09:58:04;;;;;;;28.30;14.77;;;;;;;;;;5028427;28;20563;-67
2021/09/13 10:00:29;;;;;;;33.58;15.82;;;;;;;;;;5029388;28;20028;-66
2021/09/13 10:02:55;;;;;;;26.70;14.73;;;;;;;;;;5028792;28;20021;-66
2021/09/13 10:05:21;;;;;;;31.30;16.67;;;;;;;;;;5029327;28;20021;-65
2021/09/13 10:07:47;;;;;;;23.98;16.98;;;;;;;;;;5029677;28;20037;-65
2021/09/13 10:10:12;;;;;;;22.25;14.90;;;;;;;;;;5029461;28;20029;-65
2021/09/13 10:12:38;;;;;;;27.63;14.43;;;;;;;;;;5028792;28;20079;-67
2021/09/13 10:15:04;;;;;;;28.30;16.08;;;;;;;;;;5027224;28;20333;-65
2021/09/13 10:17:30;;;;;;;30.88;17.63;;;;;;;;;;5027048;28;20538;-66
2021/09/13 10:19:55;;;;;;;24.52;14.90;;;;;;;;;;5028121;28;20117;-66
2021/09/13 10:22:20;;;;;;;30.08;17.48;;;;;;;;;;5029309;28;20036;-67
2021/09/13 10:24:47;;;;;;;30.00;18.67;;;;;;;;;;5029639;28;20101;-66
2021/09/13 10:27:14;;;;;;;31.80;18.13;;;;;;;;;;5029352;28;20787;-67
2021/09/13 10:29:40;;;;;;;28.25;16.48;;;;;;;;;;5029526;28;20105;-66
2021/09/13 10:32:14;;;;;;;27.98;16.40;;;;;;;;;;5028995;28;20052;-68
2021/09/13 10:34:39;;;;;;;28.30;17.77;;;;;;;;;;5029427;28;20021;-68
2021/09/13 10:37:15;;;;;;;23.20;15.73;;;;;;;;;;5029940;28;20187;-66
2021/09/13 10:39:46;;;;;;;27.00;14.75;;;;;;;;;;5029000;28;20029;-65
2021/09/13 10:42:30;;;;;;;21.95;13.82;;;;;;;;;;5018382;28;20022;-65
2021/09/13 10:45:05;;;;;;;27.90;15.93;;;;;;;;;;5028082;28;20108;-65
2021/09/13 10:47:30;;;;;;;22.08;12.35;;;;;;;;;;5025829;28;20021;-65
2021/09/13 10:50:18;;;;;;;21.13;11.90;;;;;;;;;;5029136;28;20117;-66
2021/09/13 10:52:44;;;;;;;21.30;11.63;;;;;;;;;;5023572;28;20276;-65
2021/09/13 10:55:10;;;;;;;17.38;10.20;;;;;;;;;;5023024;28;20524;-66
2021/09/13 10:57:54;;;;;;;17.20;10.60;;;;;;;;;;5026260;28;20053;-66
2021/09/13 11:00:37;;;;;;;17.83;10.43;;;;;;;;;;5027598;28;20092;-66
2021/09/13 11:03:29;;;;;;;17.75;9.00;;;;;;;;;;5031010;28;20389;-67
2021/09/13 11:06:07;;;;;;;12.68;7.55;;;;;;;;;;5025800;28;20413;-66
2021/09/13 11:08:36;;;;;;;12.32;7.25;;;;;;;;;;5031967;28;20026;-67
2021/09/13 11:11:07;;;;;;;15.80;6.00;;;;;;;;;;5031134;28;20021;-66
2021/09/13 11:13:32;;;;;;;8.40;3.97;;;;;;;;;;5015762;28;20272;-68
2021/09/13 11:15:58;;;;;;;8.60;4.40;;;;;;;;;;5022851;28;20583;-67
2021/09/13 11:18:30;;;;;;;7.65;5.03;;;;;;;;;;5023199;28;20022;-67
2021/09/13 11:20:57;;;;;;;16.92;9.07;;;;;;;;;;5022557;28;20502;-66
2021/09/13 11:23:32;;;;;;;14.02;6.15;;;;;;;;;;5021484;28;20566;-67
2021/09/13 11:25:58;;;;;;;7.63;4.40;;;;;;;;;;5021596;28;20092;-67
2021/09/13 11:28:23;;;;;;;7.20;4.60;;;;;;;;;;5021909;28;20577;-66
2021/09/13 11:30:48;;;;;;;8.30;6.63;;;;;;;;;;5025048;28;20109;-66
2021/09/13 11:33:13;;;;;;;16.27;7.57;;;;;;;;;;5023440;28;20513;-66
2021/09/13 11:35:38;;;;;;;10.97;5.90;;;;;;;;;;5028020;28;20067;-67
2021/09/13 11:38:04;;;;;;;17.40;8.93;;;;;;;;;;5018957;28;20272;-67
2021/09/13 11:40:30;;;;;;;13.60;8.10;;;;;;;;;;5027643;28;20633;-67
2021/09/13 11:42:55;;;;;;;14.57;6.97;;;;;;;;;;5030455;28;20021;-66
2021/09/13 11:45:20;;;;;;;12.77;7.03;;;;;;;;;;5030588;28;20048;-67
2021/09/13 11:47:45;;;;;;;13.67;8.47;;;;;;;;;;5030772;28;20275;-67
2021/09/13 11:50:10;;;;;;;13.47;8.93;;;;;;;;;;5031709;28;20272;-66
2021/09/13 11:52:37;;;;;;;10.67;7.77;;;;;;;;;;5031158;28;20299;-67
2021/09/13 11:55:06;;;;;;;19.65;10.52;;;;;;;;;;5030072;28;20776;-66
2021/09/13 11:57:37;;;;;;;22.80;10.45;;;;;;;;;;5030302;28;20415;-67
2021/09/13 12:00:13;;;;;;;15.85;9.20;;;;;;;;;;5030497;28;20113;-68
2021/09/13 12:03:00;;;;;;;18.95;10.18;;;;;;;;;;5031218;28;20029;-68
2021/09/13 12:05:26;;;;;;;18.05;9.30;;;;;;;;;;5016968;28;20080;-67
2021/09/13 12:07:53;;;;;;;15.25;9.95;;;;;;;;;;5027525;28;20021;-66
2021/09/13 12:10:19;;;;;;;13.57;7.45;;;;;;;;;;5024149;28;20030;-67
2021/09/13 12:12:46;;;;;;;13.82;9.55;;;;;;;;;;5023077;28;20696;-66
2021/09/13 12:15:12;;;;;;;14.73;8.07;;;;;;;;;;5021832;28;20022;-67
2021/09/13 12:17:47;;;;;;;13.70;8.48;;;;;;;;;;5021707;28;20025;-66
2021/09/13 12:20:14;;;;;;;17.50;7.93;;;;;;;;;;5020104;28;20022;-66
2021/09/13 12:22:40;;;;;;;11.70;8.60;;;;;;;;;;5017531;28;20101;-68
2021/09/13 12:25:13;;;;;;;14.30;7.95;;;;;;;;;;5022348;28;20104;-66
2021/09/13 12:27:40;;;;;;;10.32;7.15;;;;;;;;;;5021796;28;20030;-66
2021/09/13 12:30:06;;;;;;;16.92;9.15;;;;;;;;;;5022445;28;20547;-68
2021/09/13 12:32:33;;;;;;;13.93;8.50;;;;;;;;;;5025293;28;20371;-67
2021/09/13 12:35:01;;;;;;;16.73;8.57;;;;;;;;;;5030881;28;20037;-67
2021/09/13 12:37:28;;;;;;;17.83;8.98;;;;;;;;;;5025430;28;20120;-67
2021/09/13 12:40:19;;;;;;;12.25;8.38;;;;;;;;;;5021845;28;20049;-66
2021/09/13 12:42:55;;;;;;;14.07;8.52;;;;;;;;;;5022930;28;20636;-66
2021/09/13 12:45:25;;;;;;;16.35;9.15;;;;;;;;;;5021515;28;20033;-66
2021/09/13 12:48:00;;;;;;;16.33;9.98;;;;;;;;;;5022690;28;20018;-66
2021/09/13 12:50:26;;;;;;;18.48;9.25;;;;;;;;;;5019641;28;20112;-65
2021/09/13 12:52:51;;;;;;;13.98;8.95;;;;;;;;;;5018071;28;20052;-67
2021/09/13 12:55:18;;;;;;;17.90;9.33;;;;;;;;;;5025130;28;20552;-67
2021/09/13 12:57:44;;;;;;;16.08;10.63;;;;;;;;;;5019532;28;20784;-65
2021/09/13 13:00:11;;;;;;;12.77;9.82;;;;;;;;;;5021345;28;20056;-65
2021/09/13 13:02:36;;;;;;;13.02;8.77;;;;;;;;;;5020106;28;20029;-68
2021/09/13 13:05:01;;;;;;;14.53;8.27;;;;;;;;;;5018977;28;20084;-67
2021/09/13 13:07:26;;;;;;;12.47;9.37;;;;;;;;;;5021688;28;20280;-67
2021/09/13 13:09:51;;;;;;;14.13;8.63;;;;;;;;;;5021176;28;20308;-67
2021/09/13 13:12:17;;;;;;;15.03;6.93;;;;;;;;;;5023230;28;20846;-68
2021/09/13 13:14:42;;;;;;;12.90;8.27;;;;;;;;;;5017811;28;20344;-67
2021/09/13 13:17:07;;;;;;;11.03;7.27;;;;;;;;;;5026110;28;20018;-68
2021/09/13 13:19:32;;;;;;;18.40;8.77;;;;;;;;;;5030731;28;20276;-66
2021/09/13 13:21:57;;;;;;;14.50;9.43;;;;;;;;;;5029832;28;20303;-67
2021/09/13 13:24:22;;;;;;;18.67;8.63;;;;;;;;;;5029837;28;20306;-67
2021/09/13 13:26:49;;;;;;;14.50;8.03;;;;;;;;;;5030219;28;20029;-68
2021/09/13 13:29:14;;;;;;;16.73;10.27;;;;;;;;;;5030683;28;20275;-67
2021/09/13 13:31:39;;;;;;;22.02;9.50;;;;;;;;;;5029861;28;20026;-65
2021/09/13 13:34:09;;;;;;;12.70;8.55;;;;;;;;;;5030586;28;20555;-66
2021/09/13 13:36:34;;;;;;;17.53;10.60;;;;;;;;;;5030114;28;20429;-67
2021/09/13 13:39:00;;;;;;;15.02;9.30;;;;;;;;;;5030005;28;20013;-68
2021/09/13 13:41:25;;;;;;;15.90;10.98;;;;;;;;;;5029604;28;20447;-66
2021/09/13 13:43:50;;;;;;;20.77;12.07;;;;;;;;;;5030046;28;20021;-67
2021/09/13 13:46:15;;;;;;;14.70;9.50;;;;;;;;;;5028847;28;20363;-67
2021/09/13 13:48:41;;;;;;;12.93;8.75;;;;;;;;;;5028987;28;20339;-67
2021/09/13 13:51:06;;;;;;;17.33;9.83;;;;;;;;;;5030135;28;20049;-67
2021/09/13 13:53:31;;;;;;;17.97;9.87;;;;;;;;;;5029064;28;20409;-66
2021/09/13 13:55:56;;;;;;;13.30;9.05;;;;;;;;;;5030080;28;20649;-66
2021/09/13 13:58:21;;;;;;;15.07;9.32;;;;;;;;;;5029851;28;20022;-67
2021/09/13 14:00:48;;;;;;;15.80;9.13;;;;;;;;;;5030250;28;20021;-67
2021/09/13 14:03:13;;;;;;;16.08;10.15;;;;;;;;;;5026828;28;20323;-66
2021/09/13 14:05:39;;;;;;;16.88;11.13;;;;;;;;;;5016862;28;20021;-67
2021/09/13 14:08:04;;;;;;;14.73;9.43;;;;;;;;;;5021475;28;20084;-68
2021/09/13 14:10:29;;;;;;;18.38;8.85;;;;;;;;;;5022038;28;20026;-67
2021/09/13 14:12:55;;;;;;;12.38;8.88;;;;;;;;;;5017584;28;20029;-68
2021/09/13 14:15:20;;;;;;;12.73;8.43;;;;;;;;;;5020932;28;20059;-67
2021/09/13 14:17:45;;;;;;;12.23;8.53;;;;;;;;;;5020863;28;20268;-68
2021/09/13 14:20:11;;;;;;;11.18;7.75;;;;;;;;;;5019326;28;20711;-68
2021/09/13 14:22:36;;;;;;;11.00;8.02;;;;;;;;;;5019808;28;20037;-68
2021/09/13 14:25:02;;;;;;;12.13;7.93;;;;;;;;;;5020787;28;20037;-67
2021/09/13 14:27:28;;;;;;;13.70;7.20;;;;;;;;;;5019075;28;20037;-68
2021/09/13 14:29:53;;;;;;;12.55;7.25;;;;;;;;;;5023122;28;20120;-67